createdAt,value
2019-05-12T00:00:28.780Z,0.00
2019-05-12T00:01:28.565Z,0.00
2019-05-12T00:02:28.712Z,0.00
2019-05-12T00:03:27.724Z,0.00
2019-05-12T00:04:28.027Z,0.00
2019-05-12T00:05:27.951Z,0.00
2019-05-12T00:06:28.311Z,0.00
2019-05-12T00:07:28.591Z,0.00
2019-05-12T00:08:27.795Z,0.00
2019-05-12T00:09:28.255Z,0.00
2019-05-12T00:10:28.225Z,0.00
2019-05-12T00:11:28.766Z,0.00
2019-05-12T00:12:27.805Z,0.00
2019-05-12T00:13:27.925Z,0.00
2019-05-12T00:14:28.287Z,0.00
2019-05-12T00:15:27.950Z,0.00
2019-05-12T00:16:28.367Z,0.00
2019-05-12T00:17:28.429Z,0.00
2019-05-12T00:18:28.500Z,0.00
2019-05-12T00:19:28.534Z,0.00
2019-05-12T00:20:28.293Z,0.00
2019-05-12T00:21:28.337Z,0.00
2019-05-12T00:22:28.678Z,0.00
2019-05-12T00:23:30.827Z,0.00
2019-05-12T00:24:28.029Z,0.00
2019-05-12T00:25:28.260Z,0.00
2019-05-12T00:26:28.302Z,0.00
2019-05-12T00:27:28.427Z,0.00
2019-05-12T00:28:28.402Z,0.00
2019-05-12T00:29:28.677Z,0.00
2019-05-12T00:30:27.732Z,0.00
2019-05-12T00:31:28.114Z,0.00
2019-05-12T00:32:28.202Z,0.00
2019-05-12T00:33:28.210Z,0.00
2019-05-12T00:34:28.856Z,0.00
2019-05-12T00:35:28.460Z,0.00
2019-05-12T00:36:29.096Z,0.00
2019-05-12T00:37:28.846Z,0.00
2019-05-12T00:38:27.828Z,0.00
2019-05-12T00:39:27.868Z,0.00
2019-05-12T00:40:28.027Z,0.00
2019-05-12T00:41:28.360Z,0.00
2019-05-12T00:42:28.768Z,0.00
2019-05-12T00:43:28.110Z,0.00
2019-05-12T00:44:28.436Z,0.00
2019-05-12T00:45:29.322Z,0.00
2019-05-12T00:46:27.820Z,0.00
2019-05-12T00:47:28.037Z,0.00
2019-05-12T00:48:28.425Z,0.00
2019-05-12T00:49:28.930Z,0.00
2019-05-12T00:50:28.935Z,0.00
2019-05-12T00:51:28.874Z,0.00
2019-05-12T00:52:28.136Z,0.00
2019-05-12T00:53:39.357Z,0.00
2019-05-12T00:54:28.515Z,0.00
2019-05-12T00:55:29.009Z,0.00
2019-05-12T00:56:28.407Z,0.00
2019-05-12T00:57:28.668Z,0.00
2019-05-12T00:58:27.825Z,0.00
2019-05-12T00:59:27.931Z,0.00
2019-05-12T01:00:29.102Z,0.00
2019-05-12T01:01:28.592Z,0.00
2019-05-12T01:02:28.680Z,0.00
2019-05-12T01:03:27.980Z,0.00
2019-05-12T01:04:28.938Z,0.00
2019-05-12T01:05:29.137Z,0.00
2019-05-12T01:06:28.281Z,0.00
2019-05-12T01:07:27.750Z,0.00
2019-05-12T01:08:28.021Z,0.00
2019-05-12T01:09:28.206Z,0.00
2019-05-12T01:10:28.680Z,0.00
2019-05-12T01:11:28.562Z,0.00
2019-05-12T01:12:28.515Z,0.00
2019-05-12T01:13:27.938Z,0.00
2019-05-12T01:14:27.865Z,0.00
2019-05-12T01:15:28.817Z,0.00
2019-05-12T01:16:28.786Z,0.00
2019-05-12T01:17:28.198Z,0.00
2019-05-12T01:18:28.054Z,0.00
2019-05-12T01:19:28.598Z,0.00
2019-05-12T01:20:28.369Z,0.00
2019-05-12T01:21:28.582Z,0.00
2019-05-12T01:22:27.738Z,0.00
2019-05-12T01:23:28.094Z,0.00
2019-05-12T01:24:28.203Z,0.00
2019-05-12T01:25:28.750Z,0.00
2019-05-12T01:26:28.342Z,0.00
2019-05-12T01:27:28.633Z,0.00
2019-05-12T01:28:27.835Z,0.00
2019-05-12T01:29:28.192Z,0.00
2019-05-12T01:30:28.379Z,0.00
2019-05-12T01:31:28.459Z,0.00
2019-05-12T01:32:28.687Z,0.00
2019-05-12T01:33:27.691Z,0.00
2019-05-12T01:34:27.729Z,0.00
2019-05-12T01:35:28.301Z,0.00
2019-05-12T01:36:28.497Z,0.00
2019-05-12T01:37:28.026Z,0.00
2019-05-12T01:38:28.567Z,0.00
2019-05-12T01:39:27.739Z,0.00
2019-05-12T01:40:28.734Z,0.00
2019-05-12T01:41:28.493Z,0.00
2019-05-12T01:42:28.496Z,0.00
2019-05-12T01:43:27.787Z,0.00
2019-05-12T01:44:28.610Z,0.00
2019-05-12T01:45:28.466Z,0.00
2019-05-12T01:46:28.272Z,0.00
2019-05-12T01:47:28.937Z,0.00
2019-05-12T01:48:28.528Z,0.00
2019-05-12T01:49:26.183Z,0.00
2019-05-12T01:50:28.377Z,0.00
2019-05-12T01:51:28.328Z,0.00
2019-05-12T01:52:28.416Z,0.00
2019-05-12T01:53:28.524Z,0.00
2019-05-12T01:54:27.808Z,0.00
2019-05-12T01:55:28.137Z,0.00
2019-05-12T01:56:26.101Z,0.00
2019-05-12T01:57:26.088Z,0.00
2019-05-12T01:58:27.803Z,0.00
2019-05-12T01:59:26.067Z,0.00
2019-05-12T02:00:28.484Z,0.00
2019-05-12T02:01:28.075Z,0.00
2019-05-12T02:02:28.421Z,0.00
2019-05-12T02:03:28.219Z,0.00
2019-05-12T02:04:26.026Z,0.00
2019-05-12T02:05:28.055Z,0.00
2019-05-12T02:06:27.868Z,0.00
2019-05-12T02:07:27.933Z,0.00
2019-05-12T02:08:27.885Z,0.00
2019-05-12T02:09:27.974Z,0.00
2019-05-12T02:10:28.284Z,0.00
2019-05-12T02:11:25.940Z,0.00
2019-05-12T02:12:25.927Z,0.00
2019-05-12T02:13:27.704Z,0.00
2019-05-12T02:14:27.584Z,0.00
2019-05-12T02:15:27.845Z,0.00
2019-05-12T02:16:28.074Z,0.00
2019-05-12T02:17:28.200Z,0.00
2019-05-12T02:18:28.105Z,0.00
2019-05-12T02:19:28.135Z,0.00
2019-05-12T02:20:25.848Z,0.00
2019-05-12T02:21:27.774Z,0.00
2019-05-12T02:22:27.869Z,0.00
2019-05-12T02:23:28.055Z,0.00
2019-05-12T02:24:29.757Z,0.00
2019-05-12T02:25:25.790Z,0.00
2019-05-12T02:26:25.772Z,0.00
2019-05-12T02:27:28.299Z,0.00
2019-05-12T02:28:25.765Z,0.00
2019-05-12T02:29:25.745Z,0.00
2019-05-12T02:30:29.330Z,0.00
2019-05-12T02:31:29.125Z,0.00
2019-05-12T02:32:33.201Z,0.00
2019-05-12T02:33:29.535Z,0.00
2019-05-12T02:34:25.793Z,0.00
2019-05-12T02:35:25.678Z,0.00
2019-05-12T02:36:26.050Z,0.00
2019-05-12T02:37:26.392Z,0.00
2019-05-12T02:38:25.642Z,0.00
2019-05-12T02:39:25.631Z,0.00
2019-05-12T02:40:25.784Z,0.00
2019-05-12T02:41:26.166Z,0.00
2019-05-12T02:42:25.634Z,0.00
2019-05-12T02:43:25.604Z,0.00
2019-05-12T02:44:25.577Z,0.00
2019-05-12T02:45:25.917Z,0.00
2019-05-12T02:46:25.914Z,0.00
2019-05-12T02:47:25.547Z,0.00
2019-05-12T02:48:25.551Z,0.00
2019-05-12T02:49:25.526Z,0.00
2019-05-12T02:50:25.522Z,0.00
2019-05-12T02:51:25.513Z,0.00
2019-05-12T02:52:25.497Z,0.00
2019-05-12T02:53:25.486Z,0.00
2019-05-12T02:54:45.876Z,0.00
2019-05-12T02:55:26.466Z,0.00
2019-05-12T02:56:25.944Z,0.00
2019-05-12T02:57:25.780Z,0.00
2019-05-12T02:58:25.571Z,0.00
2019-05-12T02:59:25.648Z,0.00
2019-05-12T03:00:25.405Z,0.00
2019-05-12T03:01:25.398Z,0.00
2019-05-12T03:02:25.382Z,0.00
2019-05-12T03:03:25.410Z,0.00
2019-05-12T03:04:25.368Z,0.00
2019-05-12T03:05:25.369Z,0.00
2019-05-12T03:06:25.421Z,0.00
2019-05-12T03:07:25.703Z,0.00
2019-05-12T03:08:25.958Z,0.00
2019-05-12T03:09:25.340Z,0.00
2019-05-12T03:10:25.437Z,0.00
2019-05-12T03:11:25.288Z,0.00
2019-05-12T03:12:25.769Z,0.00
2019-05-12T03:13:25.623Z,0.00
2019-05-12T03:14:25.492Z,0.00
2019-05-12T03:15:25.351Z,0.00
2019-05-12T03:16:25.853Z,0.00
2019-05-12T03:17:25.489Z,0.00
2019-05-12T03:18:25.583Z,0.00
2019-05-12T03:19:25.457Z,0.00
2019-05-12T03:20:25.221Z,0.00
2019-05-12T03:21:25.179Z,0.00
2019-05-12T03:22:25.474Z,0.00
2019-05-12T03:23:25.170Z,0.00
2019-05-12T03:24:25.347Z,0.00
2019-05-12T03:25:29.818Z,0.00
2019-05-12T03:26:26.138Z,0.00
2019-05-12T03:27:25.769Z,5.62
2019-05-12T03:28:25.855Z,5.62
2019-05-12T03:29:25.375Z,5.62
2019-05-12T03:30:29.009Z,5.62
2019-05-12T03:31:31.675Z,5.62
2019-05-12T03:32:28.033Z,5.62
2019-05-12T03:33:33.003Z,11.25
2019-05-12T03:34:29.241Z,11.25
2019-05-12T03:35:32.392Z,11.25
2019-05-12T03:36:31.918Z,11.25
2019-05-12T03:37:30.753Z,11.25
2019-05-12T03:38:27.597Z,16.88
2019-05-12T03:39:25.230Z,16.88
2019-05-12T03:40:25.162Z,16.88
2019-05-12T03:41:25.256Z,22.50
2019-05-12T03:42:25.420Z,22.50
2019-05-12T03:43:24.964Z,22.50
2019-05-12T03:44:25.353Z,28.12
2019-05-12T03:45:25.266Z,28.12
2019-05-12T03:46:25.100Z,33.75
2019-05-12T03:47:25.348Z,33.75
2019-05-12T03:48:25.397Z,33.75
2019-05-12T03:49:24.891Z,39.38
2019-05-12T03:50:24.870Z,39.38
2019-05-12T03:51:25.332Z,45.00
2019-05-12T03:52:24.844Z,45.00
2019-05-12T03:53:25.103Z,50.62
2019-05-12T03:54:24.837Z,50.62
2019-05-12T03:55:35.605Z,56.25
2019-05-12T03:56:26.359Z,56.25
2019-05-12T03:57:25.418Z,61.88
2019-05-12T03:58:25.547Z,61.88
2019-05-12T03:59:25.533Z,67.50
2019-05-12T04:00:25.037Z,67.50
2019-05-12T04:01:25.498Z,73.12
2019-05-12T04:02:25.275Z,78.75
2019-05-12T04:03:24.923Z,84.38
2019-05-12T04:04:24.729Z,95.62
2019-05-12T04:05:24.737Z,95.62
2019-05-12T04:06:24.946Z,95.62
2019-05-12T04:07:24.683Z,101.25
2019-05-12T04:08:24.812Z,101.25
2019-05-12T04:09:24.824Z,106.88
2019-05-12T04:10:24.944Z,118.12
2019-05-12T04:11:25.168Z,118.12
2019-05-12T04:12:25.592Z,123.75
2019-05-12T04:13:26.602Z,123.75
2019-05-12T04:14:25.407Z,129.38
2019-05-12T04:15:25.567Z,135.00
2019-05-12T04:16:25.035Z,140.62
2019-05-12T04:17:24.629Z,146.25
2019-05-12T04:18:24.857Z,151.88
2019-05-12T04:19:25.057Z,157.50
2019-05-12T04:20:25.387Z,163.12
2019-05-12T04:21:24.670Z,174.38
2019-05-12T04:22:25.041Z,180.00
2019-05-12T04:23:25.044Z,180.00
2019-05-12T04:24:25.067Z,180.00
2019-05-12T04:25:25.145Z,185.62
2019-05-12T04:26:25.546Z,191.25
2019-05-12T04:27:25.282Z,196.88
2019-05-12T04:28:24.753Z,202.50
2019-05-12T04:29:25.152Z,213.75
2019-05-12T04:30:25.217Z,208.12
2019-05-12T04:31:25.096Z,208.12
2019-05-12T04:32:25.184Z,213.75
2019-05-12T04:33:25.695Z,219.38
2019-05-12T04:34:25.290Z,225.00
2019-05-12T04:35:25.326Z,230.62
2019-05-12T04:36:24.987Z,230.62
2019-05-12T04:37:25.083Z,241.88
2019-05-12T04:38:24.993Z,230.62
2019-05-12T04:39:25.295Z,241.88
2019-05-12T04:40:24.889Z,264.38
2019-05-12T04:41:26.067Z,270.00
2019-05-12T04:42:25.262Z,286.88
2019-05-12T04:43:25.327Z,309.38
2019-05-12T04:44:25.103Z,320.62
2019-05-12T04:45:25.546Z,309.38
2019-05-12T04:46:25.212Z,309.38
2019-05-12T04:47:25.279Z,343.12
2019-05-12T04:48:25.799Z,348.75
2019-05-12T04:49:25.194Z,331.88
2019-05-12T04:50:24.720Z,337.50
2019-05-12T04:51:25.905Z,337.50
2019-05-12T04:52:24.944Z,337.50
2019-05-12T04:53:25.158Z,360.00
2019-05-12T04:54:24.855Z,382.50
2019-05-12T04:55:25.542Z,399.38
2019-05-12T04:56:24.922Z,410.62
2019-05-12T04:57:25.447Z,416.25
2019-05-12T04:58:25.446Z,371.25
2019-05-12T04:59:25.442Z,371.25
2019-05-12T05:00:25.729Z,388.12
2019-05-12T05:01:25.312Z,393.75
2019-05-12T05:02:25.250Z,405.00
2019-05-12T05:03:24.829Z,427.50
2019-05-12T05:04:24.596Z,416.25
2019-05-12T05:05:24.805Z,405.00
2019-05-12T05:06:25.377Z,438.75
2019-05-12T05:07:24.476Z,478.12
2019-05-12T05:08:24.492Z,466.88
2019-05-12T05:09:24.668Z,478.12
2019-05-12T05:10:24.980Z,478.12
2019-05-12T05:11:25.023Z,483.75
2019-05-12T05:12:24.093Z,466.88
2019-05-12T05:13:24.534Z,472.50
2019-05-12T05:14:24.792Z,466.88
2019-05-12T05:15:24.930Z,478.12
2019-05-12T05:16:25.002Z,495.00
2019-05-12T05:17:24.560Z,517.50
2019-05-12T05:18:24.008Z,500.62
2019-05-12T05:19:24.460Z,483.75
2019-05-12T05:20:24.091Z,551.25
2019-05-12T05:21:24.140Z,517.50
2019-05-12T05:22:24.321Z,551.25
2019-05-12T05:23:24.274Z,472.50
2019-05-12T05:24:23.844Z,466.88
2019-05-12T05:25:23.848Z,472.50
2019-05-12T05:26:27.800Z,489.38
2019-05-12T05:27:24.660Z,500.62
2019-05-12T05:28:23.852Z,523.12
2019-05-12T05:29:24.083Z,528.75
2019-05-12T05:30:24.384Z,601.88
2019-05-12T05:31:24.437Z,624.38
2019-05-12T05:32:23.764Z,618.75
2019-05-12T05:33:24.003Z,562.50
2019-05-12T05:34:23.859Z,562.50
2019-05-12T05:35:23.980Z,624.38
2019-05-12T05:36:25.001Z,601.88
2019-05-12T05:37:24.002Z,601.88
2019-05-12T05:38:23.799Z,607.50
2019-05-12T05:39:24.369Z,641.25
2019-05-12T05:40:25.997Z,658.12
2019-05-12T05:41:24.659Z,646.88
2019-05-12T05:42:30.606Z,641.25
2019-05-12T05:43:24.649Z,652.50
2019-05-12T05:44:24.097Z,658.12
2019-05-12T05:45:26.405Z,601.88
2019-05-12T05:46:24.159Z,579.38
2019-05-12T05:47:25.640Z,506.25
2019-05-12T05:48:24.184Z,455.62
2019-05-12T05:49:23.881Z,438.75
2019-05-12T05:50:29.213Z,444.38
2019-05-12T05:51:24.559Z,466.88
2019-05-12T05:52:26.583Z,495.00
2019-05-12T05:53:24.532Z,523.12
2019-05-12T05:54:31.569Z,528.75
2019-05-12T05:55:24.504Z,534.38
2019-05-12T05:56:37.610Z,562.50
2019-05-12T05:57:28.297Z,646.88
2019-05-12T05:58:26.191Z,714.38
2019-05-12T05:59:31.479Z,781.88
2019-05-12T06:00:26.380Z,866.25
2019-05-12T06:01:24.488Z,933.75
2019-05-12T06:02:31.409Z,978.75
2019-05-12T06:03:27.796Z,973.12
2019-05-12T06:04:23.894Z,933.75
2019-05-12T06:05:26.439Z,905.62
2019-05-12T06:06:24.384Z,1006.88
2019-05-12T06:07:34.496Z,973.12
2019-05-12T06:08:24.362Z,1006.88
2019-05-12T06:09:23.624Z,1063.12
2019-05-12T06:10:34.861Z,1068.75
2019-05-12T06:11:28.347Z,1035.00
2019-05-12T06:12:24.014Z,984.38
2019-05-12T06:13:27.329Z,1018.12
2019-05-12T06:14:24.303Z,984.38
2019-05-12T06:15:23.624Z,945.00
2019-05-12T06:16:25.098Z,1316.25
2019-05-12T06:17:23.662Z,1220.62
2019-05-12T06:18:23.930Z,1046.25
2019-05-12T06:19:26.072Z,939.38
2019-05-12T06:20:23.842Z,939.38
2019-05-12T06:21:24.166Z,1417.50
2019-05-12T06:22:23.659Z,1012.50
2019-05-12T06:23:24.015Z,1029.38
2019-05-12T06:24:23.917Z,1226.25
2019-05-12T06:25:26.516Z,1023.75
2019-05-12T06:26:30.966Z,1074.38
2019-05-12T06:27:24.420Z,2261.25
2019-05-12T06:28:23.490Z,1136.25
2019-05-12T06:29:25.125Z,1198.12
2019-05-12T06:30:24.258Z,1063.12
2019-05-12T06:31:27.976Z,2272.50
2019-05-12T06:32:25.111Z,1023.75
2019-05-12T06:33:31.333Z,1085.62
2019-05-12T06:34:24.115Z,1164.38
2019-05-12T06:35:24.056Z,1164.38
2019-05-12T06:36:27.081Z,1136.25
2019-05-12T06:37:23.686Z,1569.38
2019-05-12T06:38:23.644Z,2795.62
2019-05-12T06:39:23.587Z,1096.88
2019-05-12T06:40:24.358Z,3723.75
2019-05-12T06:41:25.756Z,2379.38
2019-05-12T06:42:24.221Z,1935.00
2019-05-12T06:43:24.376Z,1175.62
2019-05-12T06:44:24.080Z,1119.38
2019-05-12T06:45:23.568Z,3223.12
2019-05-12T06:46:25.703Z,1063.12
2019-05-12T06:47:24.033Z,1822.50
2019-05-12T06:48:25.646Z,2936.25
2019-05-12T06:49:24.682Z,1968.75
2019-05-12T06:50:23.718Z,3892.50
2019-05-12T06:51:25.733Z,1338.75
2019-05-12T06:52:23.718Z,3133.12
2019-05-12T06:53:29.083Z,1366.88
2019-05-12T06:54:24.742Z,1524.38
2019-05-12T06:55:23.811Z,1260.00
2019-05-12T06:56:23.631Z,1856.25
2019-05-12T06:57:27.812Z,3448.12
2019-05-12T06:58:29.631Z,2593.12
2019-05-12T06:59:23.876Z,3881.25
2019-05-12T07:00:30.886Z,3819.38
2019-05-12T07:01:24.306Z,1372.50
2019-05-12T07:02:24.459Z,3656.25
2019-05-12T07:03:26.154Z,3830.62
2019-05-12T07:04:24.106Z,3802.50
2019-05-12T07:05:23.335Z,3808.12
2019-05-12T07:06:24.719Z,2728.12
2019-05-12T07:07:25.590Z,4275.00
2019-05-12T07:08:29.992Z,3616.88
2019-05-12T07:09:27.907Z,4280.62
2019-05-12T07:10:36.767Z,3965.62
2019-05-12T07:11:24.485Z,3915.00
2019-05-12T07:12:32.186Z,4021.88
2019-05-12T07:13:29.204Z,4095.00
2019-05-12T07:14:27.138Z,3999.38
2019-05-12T07:15:23.361Z,3847.50
2019-05-12T07:16:29.823Z,3948.75
2019-05-12T07:17:23.919Z,3791.25
2019-05-12T07:18:25.937Z,3796.88
2019-05-12T07:19:25.575Z,3892.50
2019-05-12T07:20:24.027Z,3937.50
2019-05-12T07:21:26.495Z,4072.50
2019-05-12T07:22:25.692Z,3909.38
2019-05-12T07:23:25.880Z,3504.38
2019-05-12T07:24:23.921Z,3453.75
2019-05-12T07:25:30.791Z,3802.50
2019-05-12T07:26:23.693Z,4095.00
2019-05-12T07:27:33.764Z,4100.62
2019-05-12T07:28:23.815Z,3802.50
2019-05-12T07:29:23.868Z,3763.12
2019-05-12T07:30:24.004Z,4140.00
2019-05-12T07:31:23.333Z,4151.25
2019-05-12T07:32:24.612Z,4269.38
2019-05-12T07:33:23.314Z,675.00
2019-05-12T07:34:23.979Z,4258.12
2019-05-12T07:35:24.010Z,4320.00
2019-05-12T07:36:24.289Z,4106.25
2019-05-12T07:37:23.622Z,787.50
2019-05-12T07:38:25.681Z,877.50
2019-05-12T07:39:24.190Z,4629.38
2019-05-12T07:40:25.642Z,4556.25
2019-05-12T07:41:23.772Z,4623.75
2019-05-12T07:42:30.972Z,1141.88
2019-05-12T07:43:24.279Z,945.00
2019-05-12T07:44:25.127Z,793.12
2019-05-12T07:45:25.098Z,810.00
2019-05-12T07:46:25.001Z,900.00
2019-05-12T07:47:27.327Z,900.00
2019-05-12T07:48:23.386Z,950.62
2019-05-12T07:49:32.413Z,821.25
2019-05-12T07:50:27.056Z,815.62
2019-05-12T07:51:24.175Z,787.50
2019-05-12T07:52:24.257Z,781.88
2019-05-12T07:53:23.378Z,888.75
2019-05-12T07:54:23.598Z,945.00
2019-05-12T07:55:23.691Z,4505.62
2019-05-12T07:56:25.937Z,1001.25
2019-05-12T07:57:24.197Z,1074.38
2019-05-12T07:58:23.992Z,1153.12
2019-05-12T07:59:26.716Z,5090.62
2019-05-12T08:00:25.746Z,5259.38
2019-05-12T08:01:23.587Z,5371.88
2019-05-12T08:02:25.542Z,5045.62
2019-05-12T08:03:24.333Z,5287.50
2019-05-12T08:04:23.908Z,5518.12
2019-05-12T08:05:23.997Z,4820.62
2019-05-12T08:06:24.315Z,2030.62
2019-05-12T08:07:28.261Z,1490.62
2019-05-12T08:08:23.609Z,1119.38
2019-05-12T08:09:24.114Z,1091.25
2019-05-12T08:10:23.488Z,3290.62
2019-05-12T08:11:23.632Z,1417.50
2019-05-12T08:12:23.801Z,1344.38
2019-05-12T08:13:23.819Z,1299.38
2019-05-12T08:14:25.874Z,1333.12
2019-05-12T08:15:24.625Z,5776.88
2019-05-12T08:16:25.675Z,5535.00
2019-05-12T08:17:24.590Z,4185.00
2019-05-12T08:18:21.953Z,1777.50
2019-05-12T08:19:26.581Z,5152.50
2019-05-12T08:20:23.930Z,5872.50
2019-05-12T08:21:24.139Z,5805.00
2019-05-12T08:22:25.095Z,1456.88
2019-05-12T08:23:23.407Z,1254.38
2019-05-12T08:24:23.739Z,1378.12
2019-05-12T08:25:24.795Z,1035.00
2019-05-12T08:26:23.921Z,967.50
2019-05-12T08:27:23.444Z,973.12
2019-05-12T08:28:27.882Z,4961.25
2019-05-12T08:29:24.291Z,4905.00
2019-05-12T08:30:23.942Z,5085.00
2019-05-12T08:31:23.410Z,5343.75
2019-05-12T08:32:23.468Z,1918.12
2019-05-12T08:33:23.779Z,1608.75
2019-05-12T08:34:23.721Z,5715.00
2019-05-12T08:35:29.598Z,5720.62
2019-05-12T08:36:23.606Z,3695.62
2019-05-12T08:37:24.259Z,1276.88
2019-05-12T08:38:21.748Z,1209.38
2019-05-12T08:39:25.388Z,1203.75
2019-05-12T08:40:21.719Z,4320.00
2019-05-12T08:41:23.542Z,2193.75
2019-05-12T08:42:23.790Z,1468.12
2019-05-12T08:43:23.875Z,5411.25
2019-05-12T08:44:24.993Z,5490.00
2019-05-12T08:45:28.111Z,5692.50
2019-05-12T08:46:24.330Z,5253.75
2019-05-12T08:47:23.914Z,3425.62
2019-05-12T08:48:24.823Z,4657.50
2019-05-12T08:49:23.499Z,5551.88
2019-05-12T08:50:25.624Z,6114.38
2019-05-12T08:51:25.015Z,6238.12
2019-05-12T08:52:23.596Z,4674.38
2019-05-12T08:53:23.526Z,1861.88
2019-05-12T08:54:23.268Z,2103.75
2019-05-12T08:55:25.092Z,6682.50
2019-05-12T08:56:25.512Z,6300.00
2019-05-12T08:57:24.037Z,2036.25
2019-05-12T08:58:31.608Z,1479.38
2019-05-12T08:59:26.645Z,1361.25
2019-05-12T09:00:23.685Z,1321.88
2019-05-12T09:01:26.554Z,1305.00
2019-05-12T09:02:24.087Z,1355.62
2019-05-12T09:03:26.956Z,1451.25
2019-05-12T09:04:24.226Z,4246.88
2019-05-12T09:05:28.056Z,1653.75
2019-05-12T09:06:23.753Z,1552.50
2019-05-12T09:07:21.436Z,5805.00
2019-05-12T09:08:21.416Z,1344.38
2019-05-12T09:09:23.282Z,1423.12
2019-05-12T09:10:23.394Z,1490.62
2019-05-12T09:11:21.385Z,1845.00
2019-05-12T09:12:23.317Z,3060.00
2019-05-12T09:13:23.317Z,3825.00
2019-05-12T09:14:23.748Z,3667.50
2019-05-12T09:15:21.340Z,6041.25
2019-05-12T09:16:21.350Z,6097.50
2019-05-12T09:17:23.162Z,5934.38
2019-05-12T09:18:23.527Z,5681.25
2019-05-12T09:19:24.880Z,5782.50
2019-05-12T09:20:21.293Z,6007.50
2019-05-12T09:21:23.677Z,6210.00
2019-05-12T09:22:24.109Z,6153.75
2019-05-12T09:23:21.256Z,6136.88
2019-05-12T09:24:25.707Z,6069.38
2019-05-12T09:25:23.882Z,5686.88
2019-05-12T09:26:26.636Z,5951.25
2019-05-12T09:27:24.055Z,6266.25
2019-05-12T09:28:21.207Z,6131.25
2019-05-12T09:29:21.211Z,6463.12
2019-05-12T09:30:21.188Z,6699.38
2019-05-12T09:31:25.478Z,6660.00
2019-05-12T09:32:23.547Z,6766.88
2019-05-12T09:33:26.263Z,1833.75
2019-05-12T09:34:23.518Z,1462.50
2019-05-12T09:35:21.136Z,1265.62
2019-05-12T09:36:21.713Z,1119.38
2019-05-12T09:37:21.131Z,1046.25
2019-05-12T09:38:22.999Z,1023.75
2019-05-12T09:39:23.342Z,1057.50
2019-05-12T09:40:22.823Z,1130.62
2019-05-12T09:41:21.076Z,1175.62
2019-05-12T09:42:25.745Z,1243.12
2019-05-12T09:43:23.988Z,1288.12
2019-05-12T09:44:26.430Z,1350.00
2019-05-12T09:45:23.941Z,1434.38
2019-05-12T09:46:23.190Z,1535.62
2019-05-12T09:47:25.220Z,6491.25
2019-05-12T09:48:24.509Z,6418.12
2019-05-12T09:49:23.956Z,6395.62
2019-05-12T09:50:23.361Z,6356.25
2019-05-12T09:51:20.970Z,6373.12
2019-05-12T09:52:23.302Z,4820.62
2019-05-12T09:53:23.741Z,6586.88
2019-05-12T09:54:26.218Z,6361.88
2019-05-12T09:55:24.652Z,6367.50
2019-05-12T09:56:20.924Z,6311.25
2019-05-12T09:57:20.906Z,6260.62
2019-05-12T09:58:27.296Z,6187.50
2019-05-12T09:59:23.637Z,6288.75
2019-05-12T10:00:20.878Z,5833.12
2019-05-12T10:01:20.889Z,5276.25
2019-05-12T10:02:21.187Z,5298.75
2019-05-12T10:03:20.850Z,5720.62
2019-05-12T10:04:20.840Z,6063.75
2019-05-12T10:05:20.838Z,5962.50
2019-05-12T10:06:21.350Z,5934.38
2019-05-12T10:07:20.811Z,6018.75
2019-05-12T10:08:20.801Z,5962.50
2019-05-12T10:09:20.806Z,6001.88
2019-05-12T10:10:20.782Z,6176.25
2019-05-12T10:11:21.069Z,6395.62
2019-05-12T10:12:20.764Z,6733.12
2019-05-12T10:13:26.199Z,7070.62
2019-05-12T10:14:23.538Z,1923.75
2019-05-12T10:15:24.761Z,2261.25
2019-05-12T10:16:23.934Z,7560.00
2019-05-12T10:17:26.316Z,1968.75
2019-05-12T10:18:21.704Z,1760.62
2019-05-12T10:19:20.696Z,1614.38
2019-05-12T10:20:21.591Z,1580.62
2019-05-12T10:21:20.674Z,1563.75
2019-05-12T10:22:20.663Z,1575.00
2019-05-12T10:23:24.488Z,1614.38
2019-05-12T10:24:21.644Z,1659.38
2019-05-12T10:25:23.260Z,1755.00
2019-05-12T10:26:21.623Z,6513.75
2019-05-12T10:27:21.109Z,3262.50
2019-05-12T10:28:23.643Z,1890.00
2019-05-12T10:29:21.103Z,1648.12
2019-05-12T10:30:20.613Z,1648.12
2019-05-12T10:31:20.567Z,1603.12
2019-05-12T10:32:20.559Z,1935.00
2019-05-12T10:33:20.548Z,1659.38
2019-05-12T10:34:20.547Z,5911.88
2019-05-12T10:35:23.846Z,5107.50
2019-05-12T10:36:21.531Z,5422.50
2019-05-12T10:37:25.208Z,5259.38
2019-05-12T10:38:24.008Z,5782.50
2019-05-12T10:39:20.496Z,1231.88
2019-05-12T10:40:20.476Z,6418.12
2019-05-12T10:41:20.487Z,6238.12
2019-05-12T10:42:20.458Z,6249.38
2019-05-12T10:43:20.450Z,6367.50
2019-05-12T10:44:20.435Z,6541.88
2019-05-12T10:45:20.830Z,6401.25
2019-05-12T10:46:26.346Z,6226.88
2019-05-12T10:47:23.785Z,6373.12
2019-05-12T10:48:20.409Z,6598.12
2019-05-12T10:49:20.383Z,6114.38
2019-05-12T10:50:20.391Z,6637.50
2019-05-12T10:51:20.382Z,6688.12
2019-05-12T10:52:20.358Z,5968.12
2019-05-12T10:53:20.346Z,1552.50
2019-05-12T10:54:20.336Z,2002.50
2019-05-12T10:55:20.332Z,2115.00
2019-05-12T10:56:20.337Z,5990.62
2019-05-12T10:57:20.311Z,6845.62
2019-05-12T10:58:20.310Z,1760.62
2019-05-12T10:59:30.251Z,1501.88
2019-05-12T11:00:25.243Z,1456.88
2019-05-12T11:01:21.266Z,1417.50
2019-05-12T11:02:25.447Z,1372.50
2019-05-12T11:03:21.242Z,1462.50
2019-05-12T11:04:25.134Z,1546.88
2019-05-12T11:05:23.209Z,1535.62
2019-05-12T11:06:20.212Z,2013.75
2019-05-12T11:07:23.067Z,1676.25
2019-05-12T11:08:21.206Z,4595.62
2019-05-12T11:09:21.323Z,6142.50
2019-05-12T11:10:23.215Z,5861.25
2019-05-12T11:11:20.169Z,5743.12
2019-05-12T11:12:25.296Z,4798.12
2019-05-12T11:13:23.231Z,5940.00
2019-05-12T11:14:25.149Z,6193.12
2019-05-12T11:15:21.124Z,6333.75
2019-05-12T11:16:22.908Z,6435.00
2019-05-12T11:17:21.107Z,6513.75
2019-05-12T11:18:24.826Z,6643.12
2019-05-12T11:19:21.091Z,6468.75
2019-05-12T11:20:20.072Z,6744.38
2019-05-12T11:21:20.062Z,3285.00
2019-05-12T11:22:20.054Z,2351.25
2019-05-12T11:23:20.046Z,2098.12
2019-05-12T11:24:20.062Z,1940.62
2019-05-12T11:25:20.025Z,1833.75
2019-05-12T11:26:20.016Z,1766.25
2019-05-12T11:27:19.998Z,4005.00
2019-05-12T11:28:19.996Z,4882.50
2019-05-12T11:29:19.984Z,1389.38
2019-05-12T11:30:19.986Z,1372.50
2019-05-12T11:31:19.967Z,1321.88
2019-05-12T11:32:19.949Z,1344.38
2019-05-12T11:33:20.092Z,1479.38
2019-05-12T11:34:19.932Z,1496.25
2019-05-12T11:35:19.934Z,2480.62
2019-05-12T11:36:19.911Z,5355.00
2019-05-12T11:37:19.897Z,5962.50
2019-05-12T11:38:19.895Z,5771.25
2019-05-12T11:39:19.877Z,5776.88
2019-05-12T11:40:19.878Z,6013.12
2019-05-12T11:41:20.434Z,6063.75
2019-05-12T11:42:19.848Z,5985.00
2019-05-12T11:43:19.839Z,6018.75
2019-05-12T11:44:19.824Z,5591.25
2019-05-12T11:45:19.913Z,5495.62
2019-05-12T11:46:19.807Z,5776.88
2019-05-12T11:47:24.406Z,6541.88
2019-05-12T11:48:23.349Z,6806.25
2019-05-12T11:49:21.608Z,6946.88
2019-05-12T11:50:20.772Z,4758.75
2019-05-12T11:51:20.718Z,1884.38
2019-05-12T11:52:20.744Z,1479.38
2019-05-12T11:53:21.806Z,1389.38
2019-05-12T11:54:20.724Z,1260.00
2019-05-12T11:55:21.265Z,1265.62
2019-05-12T11:56:20.710Z,1316.25
2019-05-12T11:57:20.011Z,1406.25
2019-05-12T11:58:20.708Z,1541.25
2019-05-12T11:59:19.669Z,1687.50
2019-05-12T12:00:19.663Z,2829.38
2019-05-12T12:01:19.675Z,1923.75
2019-05-12T12:02:20.215Z,1923.75
2019-05-12T12:03:20.629Z,2840.62
2019-05-12T12:04:19.619Z,3397.50
2019-05-12T12:05:19.606Z,1850.62
2019-05-12T12:06:19.605Z,5821.88
2019-05-12T12:07:19.595Z,4168.12
2019-05-12T12:08:19.575Z,6406.88
2019-05-12T12:09:19.570Z,6238.12
2019-05-12T12:10:19.565Z,6294.38
2019-05-12T12:11:24.732Z,6536.25
2019-05-12T12:12:20.533Z,6440.62
2019-05-12T12:13:25.691Z,6311.25
2019-05-12T12:14:20.518Z,6215.62
2019-05-12T12:15:20.310Z,5788.12
2019-05-12T12:16:20.507Z,5782.50
2019-05-12T12:17:22.923Z,6125.62
2019-05-12T12:18:20.472Z,6131.25
2019-05-12T12:19:19.465Z,5900.62
2019-05-12T12:20:22.463Z,5850.00
2019-05-12T12:21:19.448Z,5866.88
2019-05-12T12:22:20.230Z,5861.25
2019-05-12T12:23:20.424Z,5928.75
2019-05-12T12:24:21.373Z,5996.25
2019-05-12T12:25:20.402Z,5816.25
2019-05-12T12:26:20.162Z,5495.62
2019-05-12T12:27:19.391Z,5293.12
2019-05-12T12:28:19.386Z,5326.88
2019-05-12T12:29:19.371Z,5484.38
2019-05-12T12:30:20.069Z,5388.75
2019-05-12T12:31:19.351Z,3633.75